COOK1: Arkansas River Nr Coolidge, KS

                                SHEF ID:       COOK1     ARKANSAS R NR COOLIDGE, KS
STATION TYPE:
Regulating: Stage = 8.00, Flow = 2028

PRECIP STAGE STAGE(2) RIV-FLOW WTR-TEMP CONDUCT BAT-LOAD
in ft ft cfs F umho/cm volt
Ccp-Rev Ccp-Rev Ccp-Rev Ccp-Rev Ccp-Rev Ccp-Rev Ccp-Rev
(America/Chicago)
08/04 00:00 0.00 4.58 4.70 386 79.65 3253 12.95
08/04 01:00 0.00 4.59 4.73 389 78.94 3267 12.89
08/04 02:00 0.00 4.57 4.73 384 78.19 3285 12.89
08/04 03:00 0.00 4.57 4.74 384 77.36 3301 12.89
08/04 04:00 0.00 4.58 4.74 386 76.53 3308 12.89
08/04 05:00 0.00 4.56 4.72 381 75.74 3298 12.83
08/04 06:00 0.00 4.59 4.74 389 74.98 3287 12.83
08/04 07:00 0.00 4.59 4.78 389 74.34 3285 12.77
08/04 08:00 0.00 4.59 4.76 389 73.87 3280 12.77
08/04 09:00 0.00 4.59 4.77 389 73.74 3265 12.89
08/04 10:00 0.00 4.59 4.76 389 74.03 3251 13.07
08/04 11:00 0.00 4.58 4.74 386 74.70 3247 13.59
08/04 12:00 0.00 4.59 4.73 389 75.72 3253 13.71
08/04 13:00 0.00 4.57 4.73 384 76.87 3271 13.77
08/04 14:00 0.00 4.58 4.76 386 78.17 3303 13.71
08/04 15:00 0.00 4.58 4.75 386 79.39 3337 13.83
08/04 16:00 0.00 4.60 4.74 392 80.49 3323 13.71
08/04 17:00 0.00 4.57 4.74 384 81.27 3298 13.48
08/04 18:00 0.00 4.58 4.75 386 81.63 3308 13.36
08/04 19:00 0.00 4.55 4.72 378 81.46 3298 13.24
08/04 20:00 0.00 4.54 4.70 376 80.98 3292 13.18
08/04 21:00 0.00 4.55 4.72 378 80.31 3294 13.07
08/04 22:00 0.00 4.53 4.70 373 79.66 3290 13.00
08/04 23:00 ---- ---- ---- ---- ---- ---- ----
Data processed at Mon 05Aug2024 04:30 GMT

Parsing this webpage?

Checkout our new Data API! CWMSDataAPI (CDA)

Timeseries IDs (TSIDs)

TSIDs used from left to right in the data table
COOL.Precip-Inc.Total.1Hour.1Hour.Ccp-Rev
COOL.Stage.Inst.1Hour.0.Ccp-Rev
COOL.Stage-Alt.Inst.1Hour.0.Ccp-Rev
COOL.Flow.Inst.1Hour.0.Ccp-Rev
COOL.Temp-Water.Inst.1Hour.0.Ccp-Rev
COOL.Cond.Inst.1Hour.0.Ccp-Rev
COOL.Volt-Battery Load.Inst.1Hour.0.Ccp-Rev

                            

All information presented herein is the property of the government of the United States of America and may be revised or deleted at any time without prior notice. Dissemination of this information without the expressed written consent of the Public Affairs Office, Tulsa District U.S. Army Corps of Engineers is strictly prohibited. These data are gathered electronically and, as presented, have NOT undergone any form of quality control. These data are NOT guaranteed to be valid or correct.